Time;durP1;ratioP1;P1;durP2;ratioP2;P2;SDS_P1;SDS_P2;PMS_P1;PMS_P2;Temp;Humidity;BMP_temperature;BMP_pressure;BME280_temperature;BME280_humidity;BME280_pressure;Samples;Min_cycle;Max_cycle;Signal;HPM_P1;HPM_P2
2021/01/22 00:01:34;;;;;;;14.67;9.43;;;2.90;95.10;;;;;;4912242;28;20239;-76
2021/01/22 00:03:56;;;;;;;13.93;8.77;;;3.00;90.30;;;;;;4916849;28;20544;-76
2021/01/22 00:06:18;;;;;;;13.37;8.30;;;2.90;94.90;;;;;;4915418;28;20738;-75
2021/01/22 00:08:40;;;;;;;10.60;7.53;;;2.90;86.10;;;;;;4916994;28;20184;-75
2021/01/22 00:11:03;;;;;;;10.60;7.77;;;;;;;;;;4916878;28;20649;-76
2021/01/22 00:13:25;;;;;;;11.47;7.70;;;;;;;;;;4916278;28;20188;-75
2021/01/22 00:15:47;;;;;;;10.67;7.40;;;3.40;82.30;;;;;;4917337;28;20719;-76
2021/01/22 00:18:10;;;;;;;10.80;7.27;;;3.70;64.30;;;;;;4916271;28;20208;-75
2021/01/22 00:20:32;;;;;;;10.63;6.87;;;3.60;59.10;;;;;;4933733;27;20295;-76
2021/01/22 00:22:54;;;;;;;13.63;7.70;;;3.80;59.90;;;;;;4911646;28;20215;-76
2021/01/22 00:25:17;;;;;;;11.17;7.47;;;;;;;;;;4916248;28;20657;-77
2021/01/22 00:27:40;;;;;;;10.17;6.90;;;3.60;58.40;;;;;;4915062;28;20215;-77
2021/01/22 00:30:03;;;;;;;10.97;7.43;;;3.60;36.20;;;;;;4916471;28;20206;-76
2021/01/22 00:32:26;;;;;;;13.33;7.23;;;;;;;;;;4915546;28;20790;-77
2021/01/22 00:34:49;;;;;;;14.07;10.17;;;3.50;44.10;;;;;;4897742;28;20778;-77
2021/01/22 00:37:11;;;;;;;26.60;16.93;;;3.40;23.60;;;;;;4898860;28;20274;-77
2021/01/22 00:39:33;;;;;;;32.83;20.37;;;3.30;2.10;;;;;;4917826;28;20598;-76
2021/01/22 00:41:55;;;;;;;31.07;19.93;;;3.00;1.00;;;;;;4917414;28;20184;-76
2021/01/22 00:44:18;;;;;;;29.30;18.50;;;;;;;;;;4915059;28;20642;-76
2021/01/22 00:46:40;;;;;;;30.83;18.97;;;;;;;;;;4915000;28;20253;-76
2021/01/22 00:49:02;;;;;;;32.97;19.53;;;1.90;1.00;;;;;;4914516;28;20249;-75
2021/01/22 00:51:26;;;;;;;29.43;18.37;;;1.70;99.90;;;;;;4915441;28;20665;-76
2021/01/22 00:53:48;;;;;;;32.13;18.47;;;1.60;99.90;;;;;;4914862;28;20196;-76
2021/01/22 00:56:10;;;;;;;26.17;16.90;;;1.60;99.90;;;;;;4896825;28;20212;-76
2021/01/22 00:58:35;;;;;;;24.80;15.93;;;1.50;1.00;;;;;;4912392;28;20530;-76
2021/01/22 01:01:33;;;;;;;20.73;12.50;;;;;;;;;;4907682;28;20233;-76
2021/01/22 01:03:56;;;;;;;20.10;11.50;;;1.70;1.00;;;;;;4914421;28;20555;-75
2021/01/22 01:06:20;;;;;;;14.50;9.40;;;1.80;1.00;;;;;;4914933;28;20216;-76
2021/01/22 01:08:49;;;;;;;11.53;7.90;;;2.00;1.00;;;;;;4914913;28;20602;-76
2021/01/22 01:11:29;;;;;;;12.03;8.07;;;3.10;1.00;;;;;;4915589;28;20200;-76
2021/01/22 01:14:29;;;;;;;11.07;7.43;;;2.60;1.00;;;;;;4900013;28;20196;-76
2021/01/22 01:16:52;;;;;;;11.67;7.43;;;2.90;1.00;;;;;;4929339;28;20192;-76
2021/01/22 01:19:15;;;;;;;21.17;11.93;;;2.90;1.00;;;;;;4921582;28;20214;-77
2021/01/22 01:21:37;;;;;;;25.47;15.80;;;;;;;;;;4920968;28;20203;-76
2021/01/22 01:24:00;;;;;;;23.83;16.73;;;2.90;1.00;;;;;;4916626;28;20184;-76
2021/01/22 01:26:23;;;;;;;22.40;14.97;;;2.60;1.00;;;;;;4915345;28;20672;-77
2021/01/22 01:28:45;;;;;;;22.07;13.80;;;;;;;;;;4916334;28;20192;-76
2021/01/22 01:31:07;;;;;;;21.63;13.70;;;2.60;1.00;;;;;;4914218;28;20281;-77
2021/01/22 01:33:30;;;;;;;24.43;15.00;;;;;;;;;;4914364;28;20200;-77
2021/01/22 01:35:52;;;;;;;23.93;14.53;;;2.40;99.90;;;;;;4915886;28;20229;-77
2021/01/22 01:38:14;;;;;;;23.57;14.77;;;2.50;56.20;;;;;;4915768;28;20230;-76
2021/01/22 01:40:37;;;;;;;24.37;14.57;;;2.60;1.00;;;;;;4897539;28;20185;-76
2021/01/22 01:42:59;;;;;;;21.23;15.00;;;2.00;1.00;;;;;;4914829;28;20282;-76
2021/01/22 01:45:22;;;;;;;23.93;14.13;;;1.80;14.80;;;;;;4912960;28;20245;-77
2021/01/22 01:47:45;;;;;;;22.77;15.27;;;1.80;99.90;;;;;;4915672;28;20290;-76
2021/01/22 01:50:08;;;;;;;23.23;15.40;;;1.80;1.00;;;;;;4913666;28;20605;-77
2021/01/22 01:52:30;;;;;;;22.17;15.20;;;1.70;99.90;;;;;;4914147;28;20249;-76
2021/01/22 01:54:53;;;;;;;15.63;9.97;;;;;;;;;;4915653;28;20257;-76
2021/01/22 01:57:16;;;;;;;14.47;10.03;;;1.80;1.00;;;;;;4913713;28;20249;-77
2021/01/22 01:59:38;;;;;;;13.03;9.13;;;;;;;;;;4915808;28;20183;-77
2021/01/22 02:02:02;;;;;;;10.20;6.70;;;2.10;1.00;;;;;;4910288;28;20279;-75
2021/01/22 02:04:25;;;;;;;9.33;5.63;;;2.30;1.00;;;;;;4931638;28;20292;-76
2021/01/22 02:06:47;;;;;;;9.77;5.93;;;3.60;1.00;;;;;;4915261;28;20192;-76
2021/01/22 02:09:09;;;;;;;7.67;5.80;;;2.70;1.00;;;;;;4914423;28;20180;-77
2021/01/22 02:11:32;;;;;;;8.10;5.37;;;3.10;1.00;;;;;;4915603;28;20188;-76
2021/01/22 02:13:56;;;;;;;7.87;5.00;;;3.20;1.00;;;;;;4915735;28;20229;-76
2021/01/22 02:16:18;;;;;;;15.27;10.33;;;;;;;;;;4913800;28;20285;-75
2021/01/22 02:18:42;;;;;;;16.30;11.37;;;3.40;1.00;;;;;;4914575;28;20211;-77
2021/01/22 02:21:12;;;;;;;10.83;8.07;;;3.40;1.00;;;;;;4915294;28;20241;-76
2021/01/22 02:23:36;;;;;;;8.80;5.33;;;3.20;1.00;;;;;;4911165;28;20720;-76
2021/01/22 02:26:28;;;;;;;6.77;4.47;;;3.50;1.00;;;;;;4914137;28;20188;-76
2021/01/22 02:28:54;;;;;;;6.37;4.60;;;3.80;1.00;;;;;;4902105;28;20196;-77
2021/01/22 02:31:17;;;;;;;10.67;7.83;;;4.60;1.00;;;;;;4913192;28;20747;-76
2021/01/22 02:33:40;;;;;;;5.97;4.07;;;;;;;;;;4912474;28;20192;-76
2021/01/22 02:36:03;;;;;;;16.50;10.97;;;3.90;1.00;;;;;;4914788;28;20669;-76
2021/01/22 02:38:26;;;;;;;13.40;9.27;;;3.80;99.90;;;;;;4906674;28;20207;-77
2021/01/22 02:40:49;;;;;;;10.13;6.37;;;3.80;1.00;;;;;;4913890;28;20677;-75
2021/01/22 02:43:12;;;;;;;6.70;5.20;;;3.70;99.90;;;;;;4914085;28;20548;-77
2021/01/22 02:45:35;;;;;;;10.37;7.73;;;3.70;1.00;;;;;;4896416;28;20215;-76
2021/01/22 02:47:58;;;;;;;10.70;6.97;;;;;;;;;;4914421;28;20183;-76
2021/01/22 02:50:31;;;;;;;8.60;6.67;;;3.50;33.50;;;;;;4913171;28;20192;-76
2021/01/22 02:52:53;;;;;;;11.30;7.07;;;;;;;;;;4913374;28;20607;-76
2021/01/22 02:55:15;;;;;;;11.23;7.93;;;3.40;99.90;;;;;;4895666;28;20239;-76
2021/01/22 02:57:41;;;;;;;11.70;8.03;;;3.70;99.90;;;;;;4914287;28;20804;-76
2021/01/22 03:00:10;;;;;;;12.00;8.10;;;3.30;1.00;;;;;;4913953;28;20191;-75
2021/01/22 03:02:40;;;;;;;11.57;8.20;;;3.20;99.90;;;;;;4892324;28;20341;-76
2021/01/22 03:05:03;;;;;;;10.37;8.23;;;3.40;99.90;;;;;;4904070;28;20191;-76
2021/01/22 03:07:30;;;;;;;11.13;7.93;;;3.00;1.00;;;;;;4914547;28;20188;-77
2021/01/22 03:09:56;;;;;;;10.00;7.70;;;3.10;99.90;;;;;;4895970;28;20246;-77
2021/01/22 03:12:19;;;;;;;9.30;6.63;;;;;;;;;;4914166;28;20190;-75
2021/01/22 03:14:41;;;;;;;9.07;7.43;;;3.10;1.00;;;;;;4914874;28;20293;-76
2021/01/22 03:17:04;;;;;;;11.10;7.40;;;3.10;99.90;;;;;;4914584;28;20276;-76
2021/01/22 03:19:27;;;;;;;10.60;8.13;;;3.20;99.90;;;;;;4913151;28;20207;-76
2021/01/22 03:21:49;;;;;;;11.20;8.13;;;2.90;99.90;;;;;;4913806;28;20217;-76
2021/01/22 03:24:11;;;;;;;12.33;9.07;;;3.10;99.90;;;;;;4912758;28;20199;-76
2021/01/22 03:26:33;;;;;;;10.90;8.00;;;2.60;99.90;;;;;;4913275;28;20210;-76
2021/01/22 03:28:55;;;;;;;11.70;8.47;;;;;;;;;;4914477;28;20188;-76
2021/01/22 03:31:17;;;;;;;12.30;8.67;;;2.80;99.90;;;;;;4911843;28;20188;-76
2021/01/22 03:33:40;;;;;;;13.53;8.70;;;2.70;99.90;;;;;;4913277;28;20184;-75
2021/01/22 03:36:05;;;;;;;15.87;10.83;;;2.50;93.10;;;;;;4914255;28;20209;-76
2021/01/22 03:38:27;;;;;;;13.97;9.90;;;2.50;1.00;;;;;;4910879;28;20532;-76
2021/01/22 03:40:49;;;;;;;14.80;11.00;;;2.40;94.10;;;;;;4896089;28;20192;-76
2021/01/22 03:43:11;;;;;;;16.00;11.67;;;2.50;99.90;;;;;;4913456;28;20192;-76
2021/01/22 03:45:33;;;;;;;16.43;11.17;;;;;;;;;;4914574;28;20249;-76
2021/01/22 03:47:55;;;;;;;16.40;12.17;;;;;;;;;;4912714;28;20677;-76
2021/01/22 03:50:17;;;;;;;19.73;12.23;;;2.10;1.00;;;;;;4913595;28;20677;-76
2021/01/22 03:52:40;;;;;;;20.17;12.47;;;2.30;1.00;;;;;;4913864;28;20188;-76
2021/01/22 03:55:03;;;;;;;18.47;12.27;;;1.60;1.00;;;;;;4912837;28;20721;-76
2021/01/22 03:57:25;;;;;;;20.80;13.17;;;;;;;;;;4906715;28;20196;-76
2021/01/22 03:59:48;;;;;;;22.40;14.63;;;1.80;1.00;;;;;;4896267;28;20188;-77
2021/01/22 04:02:10;;;;;;;20.40;12.70;;;;;;;;;;4893442;28;20192;-76
2021/01/22 04:04:32;;;;;;;11.07;7.47;;;2.20;51.10;;;;;;4913642;28;20184;-77
2021/01/22 04:06:54;;;;;;;8.53;6.00;;;;;;;;;;4912967;28;20200;-76
2021/01/22 04:09:17;;;;;;;5.93;4.67;;;2.80;99.90;;;;;;4916567;28;20188;-75
2021/01/22 04:11:39;;;;;;;4.10;2.70;;;3.00;99.90;;;;;;4916558;28;20249;-76
2021/01/22 04:14:01;;;;;;;4.47;3.40;;;;;;;;;;4916868;28;20538;-76
2021/01/22 04:16:24;;;;;;;6.53;2.70;;;;;;;;;;4917333;28;20208;-77
2021/01/22 04:18:46;;;;;;;6.83;3.90;;;;;;;;;;4916081;28;20237;-75
2021/01/22 04:21:08;;;;;;;5.17;4.20;;;5.00;1.00;;;;;;4915650;28;20245;-76
2021/01/22 04:23:30;;;;;;;7.40;4.13;;;;;;;;;;4917051;28;20267;-76
2021/01/22 04:25:53;;;;;;;5.90;4.10;;;5.30;1.00;;;;;;4927937;28;20552;-77
2021/01/22 04:28:16;;;;;;;6.70;5.10;;;5.30;1.00;;;;;;4925476;28;20184;-76
2021/01/22 04:30:38;;;;;;;9.70;7.03;;;5.00;1.00;;;;;;4917708;28;20530;-76
2021/01/22 04:33:00;;;;;;;12.70;9.50;;;4.90;99.90;;;;;;4914857;28;20212;-76
2021/01/22 04:35:22;;;;;;;10.23;7.97;;;5.00;1.00;;;;;;4915765;28;20210;-76
2021/01/22 04:37:44;;;;;;;9.63;7.50;;;;;;;;;;4914986;28;20280;-77
2021/01/22 04:40:08;;;;;;;9.00;7.13;;;4.60;1.00;;;;;;4914478;28;21028;-77
2021/01/22 04:42:31;;;;;;;12.17;7.77;;;4.40;99.90;;;;;;4915805;28;20196;-76
2021/01/22 04:44:53;;;;;;;35.23;19.00;;;4.20;1.00;;;;;;4898181;28;20188;-76
2021/01/22 04:47:15;;;;;;;154.43;88.43;;;4.30;99.90;;;;;;4916235;28;20195;-76
2021/01/22 04:49:40;;;;;;;59.30;36.27;;;4.00;99.90;;;;;;4916225;28;20188;-76
2021/01/22 04:52:05;;;;;;;41.77;26.20;;;3.70;99.90;;;;;;4915750;28;20221;-76
2021/01/22 04:54:29;;;;;;;33.13;20.67;;;3.70;1.00;;;;;;4908431;28;20188;-76
2021/01/22 04:56:52;;;;;;;33.20;21.13;;;3.60;1.00;;;;;;4914991;28;20207;-76
2021/01/22 04:59:21;;;;;;;38.63;22.87;;;3.70;55.10;;;;;;4916385;28;20188;-76
2021/01/22 05:01:46;;;;;;;30.03;17.00;;;3.40;99.90;;;;;;4913525;28;20572;-75
2021/01/22 05:04:09;;;;;;;31.07;17.43;;;3.30;1.00;;;;;;4916267;28;20687;-76
2021/01/22 05:06:31;;;;;;;23.47;13.63;;;3.20;99.90;;;;;;4916478;28;20237;-76
2021/01/22 05:08:54;;;;;;;22.57;13.23;;;4.10;1.00;;;;;;4916753;28;20192;-76
2021/01/22 05:11:16;;;;;;;22.53;12.60;;;3.30;99.90;;;;;;4915852;28;20242;-77
2021/01/22 05:13:38;;;;;;;19.50;11.37;;;;;;;;;;4915182;28;20746;-76
2021/01/22 05:16:14;;;;;;;16.87;9.73;;;3.10;99.90;;;;;;4914562;28;20624;-75
2021/01/22 05:18:37;;;;;;;19.50;11.90;;;3.10;99.90;;;;;;4909256;28;20199;-76
2021/01/22 05:21:06;;;;;;;19.30;11.97;;;3.10;99.90;;;;;;4916591;28;20633;-76
2021/01/22 05:23:33;;;;;;;21.00;12.07;;;3.30;99.90;;;;;;4907809;28;20215;-76
2021/01/22 05:26:00;;;;;;;20.33;12.50;;;3.00;99.90;;;;;;4915005;28;20180;-76
2021/01/22 05:28:30;;;;;;;18.83;12.00;;;2.90;99.90;;;;;;4915447;28;20188;-76
2021/01/22 05:30:56;;;;;;;21.07;13.80;;;2.90;99.90;;;;;;4914802;28;20217;-76
2021/01/22 05:33:19;;;;;;;21.43;12.80;;;2.70;99.90;;;;;;4914044;28;20568;-75
2021/01/22 05:35:41;;;;;;;21.83;14.07;;;2.90;99.90;;;;;;4914913;28;20241;-76
2021/01/22 05:38:03;;;;;;;21.13;12.83;;;2.80;19.90;;;;;;4915325;28;20176;-76
2021/01/22 05:40:26;;;;;;;20.87;13.00;;;2.50;1.00;;;;;;4896292;28;20196;-77
2021/01/22 05:42:50;;;;;;;21.60;13.10;;;2.40;1.00;;;;;;4915251;28;20217;-76
2021/01/22 05:45:13;;;;;;;18.43;12.33;;;2.30;1.00;;;;;;4915298;28;20726;-76
2021/01/22 05:47:36;;;;;;;10.13;7.20;;;2.40;1.00;;;;;;4915002;28;20233;-77
2021/01/22 05:49:59;;;;;;;12.00;7.50;;;2.40;1.00;;;;;;4893911;28;20238;-76
2021/01/22 05:52:22;;;;;;;8.00;5.83;;;2.70;1.00;;;;;;4915142;28;20646;-77
2021/01/22 05:54:44;;;;;;;15.33;8.27;;;;;;;;;;4914124;28;20180;-76
2021/01/22 05:57:07;;;;;;;9.47;6.83;;;;;;;;;;4915094;28;20216;-76
2021/01/22 05:59:29;;;;;;;9.50;7.40;;;3.40;17.30;;;;;;4913517;28;20579;-76
2021/01/22 06:01:51;;;;;;;9.83;6.10;;;;;;;;;;4911028;28;20241;-76
2021/01/22 06:04:13;;;;;;;6.97;4.80;;;;;;;;;;4912422;28;20200;-75
2021/01/22 06:06:36;;;;;;;6.60;4.57;;;3.70;1.00;;;;;;4914121;28;20184;-76
2021/01/22 06:08:59;;;;;;;6.80;4.53;;;3.60;1.00;;;;;;4912916;28;20237;-75
2021/01/22 06:11:23;;;;;;;6.07;3.57;;;4.30;1.00;;;;;;4913066;28;20257;-76
2021/01/22 06:13:48;;;;;;;4.47;3.50;;;4.50;1.00;;;;;;4914534;28;20313;-76
2021/01/22 06:16:11;;;;;;;8.83;5.33;;;4.60;1.00;;;;;;4914923;28;20204;-76
2021/01/22 06:18:33;;;;;;;11.53;6.80;;;4.70;1.00;;;;;;4913790;28;20200;-76
2021/01/22 06:21:04;;;;;;;12.60;7.53;;;4.80;1.00;;;;;;4895817;28;20659;-75
2021/01/22 06:23:29;;;;;;;9.03;5.93;;;4.50;99.90;;;;;;4907423;28;20219;-76
2021/01/22 06:25:52;;;;;;;6.27;3.93;;;5.10;99.90;;;;;;4913775;28;20200;-76
2021/01/22 06:28:15;;;;;;;4.20;3.30;;;5.00;99.90;;;;;;4913773;28;20543;-76
2021/01/22 06:30:38;;;;;;;3.30;2.73;;;5.00;99.90;;;;;;4912273;28;20203;-77
2021/01/22 06:33:02;;;;;;;4.77;3.50;;;5.20;99.90;;;;;;4913243;28;20708;-76
2021/01/22 06:35:26;;;;;;;5.03;3.50;;;5.10;99.90;;;;;;4911263;28;20181;-76
2021/01/22 06:37:49;;;;;;;7.23;4.07;;;5.10;1.00;;;;;;4914951;28;20281;-75
2021/01/22 06:40:14;;;;;;;12.57;6.57;;;4.60;99.90;;;;;;4913142;28;20211;-76
2021/01/22 06:42:39;;;;;;;8.90;6.77;;;5.00;99.90;;;;;;4911007;28;20549;-76
2021/01/22 06:45:01;;;;;;;14.53;9.87;;;4.80;1.00;;;;;;4897153;28;20712;-76
2021/01/22 06:47:23;;;;;;;11.43;8.23;;;4.60;1.00;;;;;;4914174;28;20184;-77
2021/01/22 06:49:45;;;;;;;4.60;4.17;;;5.20;1.00;;;;;;4914750;28;20191;-77
2021/01/22 06:52:11;;;;;;;6.90;5.37;;;4.60;99.90;;;;;;4914200;28;20194;-76
2021/01/22 06:54:34;;;;;;;5.93;5.03;;;;;;;;;;4913083;28;20180;-76
2021/01/22 06:57:12;;;;;;;7.10;5.27;;;4.80;1.00;;;;;;4913632;28;20208;-77
2021/01/22 06:59:38;;;;;;;9.23;6.40;;;;;;;;;;4910902;28;20206;-76
2021/01/22 07:02:00;;;;;;;10.43;7.23;;;4.40;1.00;;;;;;4911880;28;20226;-77
2021/01/22 07:04:37;;;;;;;17.70;10.93;;;4.40;99.90;;;;;;4913268;28;20648;-77
2021/01/22 07:07:01;;;;;;;18.07;11.93;;;;;;;;;;4914005;28;20195;-77
2021/01/22 07:09:45;;;;;;;20.23;13.07;;;3.90;99.90;;;;;;4913874;28;20285;-76
2021/01/22 07:12:07;;;;;;;22.77;13.50;;;;;;;;;;4914420;28;20245;-76
2021/01/22 07:14:35;;;;;;;25.63;15.77;;;3.50;99.90;;;;;;4914083;28;20232;-77
2021/01/22 07:16:57;;;;;;;15.83;10.33;;;3.30;99.90;;;;;;4913700;28;20317;-77
2021/01/22 07:19:21;;;;;;;10.93;8.33;;;3.50;99.90;;;;;;4913640;28;20673;-76
2021/01/22 07:21:44;;;;;;;6.93;4.87;;;3.60;1.00;;;;;;4913652;28;20211;-75
2021/01/22 07:24:12;;;;;;;7.87;5.40;;;3.60;1.00;;;;;;4913654;28;20288;-76
2021/01/22 07:26:36;;;;;;;7.77;5.77;;;3.70;1.00;;;;;;4913712;28;20289;-75
2021/01/22 07:28:58;;;;;;;10.43;7.87;;;;;;;;;;4915331;28;20210;-76
2021/01/22 07:31:50;;;;;;;13.20;9.47;;;4.30;1.00;;;;;;4921105;28;20210;-75
2021/01/22 07:34:42;;;;;;;14.37;10.33;;;4.50;1.00;;;;;;4913042;28;20192;-76
2021/01/22 07:37:04;;;;;;;33.20;20.10;;;5.40;99.90;;;;;;4909624;28;20673;-75
2021/01/22 07:39:28;;;;;;;31.67;20.47;;;4.70;1.00;;;;;;4910846;28;20196;-76
2021/01/22 07:41:51;;;;;;;28.70;18.00;;;;;;;;;;4913938;28;20203;-77
2021/01/22 07:44:25;;;;;;;15.93;9.43;;;4.60;1.00;;;;;;4913872;28;20233;-76
2021/01/22 07:46:47;;;;;;;9.43;5.77;;;;;;;;;;4916510;28;20720;-76
2021/01/22 07:49:10;;;;;;;7.27;5.07;;;5.00;1.00;;;;;;4899510;28;20254;-76
2021/01/22 07:51:33;;;;;;;4.80;3.47;;;5.50;1.00;;;;;;4883273;28;20285;-75
2021/01/22 07:53:56;;;;;;;3.20;2.90;;;5.60;99.90;;;;;;4916010;28;20188;-75
2021/01/22 07:56:18;;;;;;;3.33;2.90;;;5.90;1.00;;;;;;4916073;28;20292;-76
2021/01/22 07:58:40;;;;;;;4.33;3.30;;;6.20;1.00;;;;;;4916120;28;20243;-75
2021/01/22 08:01:03;;;;;;;3.73;2.97;;;;;;;;;;4912741;28;20192;-75
2021/01/22 08:03:25;;;;;;;4.37;2.93;;;6.60;99.60;;;;;;4916003;28;20218;-75
2021/01/22 08:05:48;;;;;;;2.80;2.30;;;6.90;1.00;;;;;;4915488;28;20661;-75
2021/01/22 08:08:18;;;;;;;4.33;2.10;;;6.90;99.90;;;;;;4914734;28;20192;-75
2021/01/22 08:10:40;;;;;;;3.20;2.47;;;7.10;1.00;;;;;;4915858;28;20192;-75
2021/01/22 08:13:03;;;;;;;4.07;2.60;;;;;;;;;;4917142;28;20249;-75
2021/01/22 08:15:26;;;;;;;4.10;3.23;;;7.50;99.90;;;;;;4932490;28;20187;-75
2021/01/22 08:17:50;;;;;;;3.97;3.00;;;7.30;1.00;;;;;;4916298;28;20692;-73
2021/01/22 08:20:13;;;;;;;4.73;3.13;;;7.50;1.00;;;;;;4918154;28;20193;-75
2021/01/22 08:22:36;;;;;;;4.57;3.50;;;7.60;1.00;;;;;;4918056;28;20227;-75
2021/01/22 08:24:58;;;;;;;4.70;3.83;;;7.70;99.90;;;;;;4916343;28;20188;-75
2021/01/22 08:27:23;;;;;;;5.03;3.27;;;7.90;1.00;;;;;;4917951;28;20188;-74
2021/01/22 08:29:45;;;;;;;4.53;2.70;;;;;;;;;;4917705;28;20257;-75
2021/01/22 08:32:12;;;;;;;6.67;3.93;;;8.00;1.00;;;;;;4917316;28;20214;-75
2021/01/22 08:34:35;;;;;;;7.20;4.67;;;8.10;99.90;;;;;;4916534;28;20211;-75
2021/01/22 08:36:58;;;;;;;7.13;4.10;;;8.30;1.00;;;;;;4915854;28;20325;-76
2021/01/22 08:39:21;;;;;;;5.70;3.93;;;8.30;1.00;;;;;;4898857;28;20653;-76
2021/01/22 08:41:44;;;;;;;4.07;2.63;;;7.60;1.00;;;;;;4916579;28;20196;-76
2021/01/22 08:44:06;;;;;;;3.50;2.13;;;8.60;1.00;;;;;;4917974;28;20184;-76
2021/01/22 08:46:28;;;;;;;2.77;2.20;;;8.40;99.90;;;;;;4916889;28;20229;-77
2021/01/22 08:48:51;;;;;;;2.10;1.90;;;8.70;99.90;;;;;;4916566;28;20707;-76
2021/01/22 08:51:13;;;;;;;1.93;1.73;;;8.90;1.00;;;;;;4916120;28;20281;-76
2021/01/22 08:53:49;;;;;;;2.73;1.67;;;8.90;99.90;;;;;;4917478;28;20238;-76
2021/01/22 08:56:14;;;;;;;2.17;1.87;;;9.30;1.00;;;;;;4917387;28;20171;-75
2021/01/22 08:58:36;;;;;;;1.90;1.70;;;10.00;1.00;;;;;;4915624;28;20191;-76
2021/01/22 09:00:59;;;;;;;2.30;1.83;;;10.00;1.00;;;;;;4914542;28;20261;-75
2021/01/22 09:03:22;;;;;;;3.30;2.17;;;9.90;1.00;;;;;;4916010;28;20177;-76
2021/01/22 09:05:49;;;;;;;2.40;1.30;;;9.80;1.00;;;;;;4915930;28;20220;-75
2021/01/22 09:08:12;;;;;;;2.40;1.80;;;10.20;1.00;;;;;;4915447;28;20681;-75
2021/01/22 09:10:34;;;;;;;1.73;1.47;;;10.60;1.00;;;;;;4917485;28;20184;-76
2021/01/22 09:13:08;;;;;;;1.93;1.57;;;10.10;1.00;;;;;;4917375;28;20188;-76
2021/01/22 09:15:31;;;;;;;2.37;1.73;;;;;;;;;;4916090;28;20200;-75
2021/01/22 09:17:54;;;;;;;1.70;1.60;;;10.40;1.00;;;;;;4916659;28;20264;-75
2021/01/22 09:20:18;;;;;;;3.13;1.50;;;10.90;99.90;;;;;;4899060;28;20230;-75
2021/01/22 09:22:41;;;;;;;1.77;1.67;;;10.80;99.90;;;;;;4916990;28;20227;-75
2021/01/22 09:25:06;;;;;;;1.50;1.40;;;10.80;99.90;;;;;;4917152;28;20192;-73
2021/01/22 09:27:28;;;;;;;1.97;1.40;;;10.80;1.00;;;;;;4917045;28;20209;-74
2021/01/22 09:29:51;;;;;;;1.67;1.30;;;10.80;99.90;;;;;;4914965;28;20249;-76
2021/01/22 09:32:13;;;;;;;2.07;1.70;;;11.10;99.90;;;;;;4916659;28;20237;-74
2021/01/22 09:34:36;;;;;;;2.60;1.67;;;;;;;;;;4898765;28;20559;-75
2021/01/22 09:36:59;;;;;;;1.63;1.53;;;10.70;99.90;;;;;;4916831;28;20572;-75
2021/01/22 09:39:21;;;;;;;3.30;1.67;;;10.40;99.90;;;;;;4915996;28;20237;-75
2021/01/22 09:41:44;;;;;;;3.07;1.93;;;;;;;;;;4915538;28;20548;-73
2021/01/22 09:44:07;;;;;;;2.40;2.20;;;10.50;99.90;;;;;;4915552;28;20277;-74
2021/01/22 09:46:30;;;;;;;2.17;1.80;;;10.60;1.00;;;;;;4916830;28;20188;-74
2021/01/22 09:48:52;;;;;;;3.47;2.33;;;10.70;99.90;;;;;;4914944;28;20196;-75
2021/01/22 09:51:14;;;;;;;2.53;2.07;;;10.60;99.90;;;;;;4916258;28;20206;-73
2021/01/22 09:53:36;;;;;;;2.90;1.97;;;10.60;99.90;;;;;;4915308;28;20607;-74
2021/01/22 09:55:58;;;;;;;1.63;1.47;;;11.00;99.90;;;;;;4916527;28;20180;-74
2021/01/22 09:58:20;;;;;;;1.83;1.60;;;;;;;;;;4915999;28;20228;-74
2021/01/22 10:00:43;;;;;;;3.13;2.50;;;;;;;;;;4912779;28;20614;-73
2021/01/22 10:03:08;;;;;;;1.97;1.77;;;11.10;1.00;;;;;;4916448;28;20192;-73
2021/01/22 10:05:30;;;;;;;1.73;1.63;;;11.80;1.10;;;;;;4914543;28;20204;-74
2021/01/22 10:07:52;;;;;;;2.07;1.50;;;13.30;99.90;;;;;;4914000;28;20200;-74
2021/01/22 10:10:14;;;;;;;2.03;1.83;;;14.30;71.40;;;;;;4913436;28;20593;-74
2021/01/22 10:12:36;;;;;;;1.97;1.07;;;13.50;1.00;;;;;;4914796;28;20203;-74
2021/01/22 10:14:58;;;;;;;1.10;1.00;;;13.00;97.60;;;;;;4916053;28;20193;-76
2021/01/22 10:17:20;;;;;;;2.90;2.60;;;11.90;23.60;;;;;;4914379;28;20281;-74
2021/01/22 10:19:43;;;;;;;5.03;3.83;;;11.60;1.00;;;;;;4914822;28;20200;-74
2021/01/22 10:22:06;;;;;;;2.43;2.13;;;11.50;1.00;;;;;;4915373;28;20755;-75
2021/01/22 10:24:28;;;;;;;2.60;1.93;;;;;;;;;;4916129;28;20233;-73
2021/01/22 10:26:50;;;;;;;2.43;1.90;;;11.20;99.90;;;;;;4915960;28;20245;-73
2021/01/22 10:29:12;;;;;;;2.83;2.03;;;10.60;1.00;;;;;;4914230;28;20196;-73
2021/01/22 10:31:34;;;;;;;2.27;1.30;;;10.50;99.90;;;;;;4919661;28;20581;-75
2021/01/22 10:33:57;;;;;;;2.00;1.80;;;;;;;;;;4919540;28;20611;-74
2021/01/22 10:36:20;;;;;;;2.10;1.60;;;10.90;99.90;;;;;;4913141;28;20188;-74
2021/01/22 10:38:43;;;;;;;3.47;2.70;;;11.30;99.90;;;;;;4913080;28;20219;-74
2021/01/22 10:41:05;;;;;;;2.80;2.07;;;11.30;1.00;;;;;;4914232;28;20195;-74
2021/01/22 10:43:28;;;;;;;3.27;2.77;;;;;;;;;;4914197;28;20799;-74
2021/01/22 10:45:50;;;;;;;4.90;3.10;;;11.30;99.90;;;;;;4913062;28;20196;-73
2021/01/22 10:48:13;;;;;;;5.17;3.17;;;;;;;;;;4906031;28;20718;-74
2021/01/22 10:50:35;;;;;;;2.93;2.60;;;;;;;;;;4913626;28;20196;-73
2021/01/22 10:52:58;;;;;;;3.37;2.47;;;11.00;1.00;;;;;;4913112;28;20236;-75
2021/01/22 10:55:20;;;;;;;4.43;3.87;;;11.20;99.90;;;;;;4913554;28;20750;-74
2021/01/22 10:57:42;;;;;;;5.27;3.77;;;11.60;28.40;;;;;;4913322;28;20242;-75
2021/01/22 11:00:06;;;;;;;5.13;4.13;;;11.20;1.00;;;;;;4904630;28;20245;-73
2021/01/22 11:02:28;;;;;;;5.50;4.50;;;;;;;;;;4893467;28;20207;-73
2021/01/22 11:04:50;;;;;;;5.53;4.63;;;11.60;99.90;;;;;;4914628;28;20188;-74
2021/01/22 11:07:12;;;;;;;4.30;3.83;;;12.20;1.00;;;;;;4907931;28;20249;-76
2021/01/22 11:09:35;;;;;;;3.53;2.53;;;11.30;1.00;;;;;;4909957;28;20241;-74
2021/01/22 11:11:58;;;;;;;2.20;2.00;;;10.90;99.90;;;;;;4910710;28;20854;-73
2021/01/22 11:14:20;;;;;;;4.63;3.13;;;11.20;92.80;;;;;;4912665;28;20192;-74
2021/01/22 11:16:42;;;;;;;3.67;1.70;;;;;;;;;;4913042;28;20579;-74
2021/01/22 11:19:06;;;;;;;2.67;2.40;;;11.00;99.90;;;;;;4914712;28;20220;-75
2021/01/22 11:21:28;;;;;;;4.37;3.53;;;11.10;1.00;;;;;;4913661;28;20231;-76
2021/01/22 11:23:50;;;;;;;5.97;4.60;;;11.40;15.80;;;;;;4894954;28;20225;-76
2021/01/22 11:26:13;;;;;;;7.57;6.00;;;11.20;99.90;;;;;;4914715;28;20238;-75
2021/01/22 11:28:35;;;;;;;5.00;4.20;;;10.70;1.00;;;;;;4913007;28;20585;-75
2021/01/22 11:30:57;;;;;;;3.17;2.87;;;10.30;99.90;;;;;;4894828;28;20196;-74
2021/01/22 11:33:19;;;;;;;4.20;3.47;;;10.70;99.90;;;;;;4911038;28;20196;-74
2021/01/22 11:35:41;;;;;;;3.03;2.47;;;;;;;;;;4913103;28;20188;-78
2021/01/22 11:38:04;;;;;;;3.80;2.27;;;10.90;65.20;;;;;;4894815;28;20772;-75
2021/01/22 11:40:27;;;;;;;5.40;2.47;;;;;;;;;;4912711;28;20262;-76
2021/01/22 11:42:50;;;;;;;3.53;2.47;;;10.80;99.90;;;;;;4899598;28;20230;-73
2021/01/22 11:45:15;;;;;;;3.13;2.43;;;10.30;1.00;;;;;;4910973;28;20191;-76
2021/01/22 11:47:38;;;;;;;2.83;2.13;;;;;;;;;;4878777;28;20197;-75
2021/01/22 11:50:00;;;;;;;1.70;1.60;;;10.60;1.00;;;;;;4895850;28;20246;-75
2021/01/22 11:52:23;;;;;;;2.20;1.77;;;10.00;1.00;;;;;;4911995;28;20200;-74
2021/01/22 11:54:45;;;;;;;4.13;3.00;;;;;;;;;;4912887;28;20188;-76
2021/01/22 11:57:07;;;;;;;3.33;2.57;;;;;;;;;;4911593;28;20188;-76
2021/01/22 11:59:30;;;;;;;2.77;2.07;;;10.10;1.00;;;;;;4913408;28;20273;-77
2021/01/22 12:01:52;;;;;;;2.17;1.97;;;9.90;1.00;;;;;;4910209;28;20215;-78
2021/01/22 12:04:15;;;;;;;3.90;3.00;;;;;;;;;;4911920;28;20196;-75
2021/01/22 12:06:39;;;;;;;3.83;3.13;;;9.60;99.90;;;;;;4910513;28;20192;-78
2021/01/22 12:09:02;;;;;;;3.10;2.53;;;;;;;;;;4911525;28;20795;-76
2021/01/22 12:11:24;;;;;;;2.50;2.13;;;;;;;;;;4911025;28;20235;-78
2021/01/22 12:13:46;;;;;;;1.97;1.73;;;;;;;;;;4911480;28;20219;-79
2021/01/22 12:16:10;;;;;;;3.13;2.27;;;9.80;99.90;;;;;;4893889;28;20201;-77
2021/01/22 12:18:32;;;;;;;3.63;2.27;;;9.90;1.00;;;;;;4912688;28;20242;-77
2021/01/22 12:20:54;;;;;;;3.43;2.07;;;10.40;1.00;;;;;;4894098;28;20184;-79
2021/01/22 12:23:16;;;;;;;3.63;2.40;;;10.40;1.00;;;;;;4894272;28;20240;-76
2021/01/22 12:25:40;;;;;;;2.67;2.00;;;10.20;1.00;;;;;;4911791;28;20744;-78
2021/01/22 12:28:03;;;;;;;2.50;2.10;;;;;;;;;;4907708;28;20652;-76
2021/01/22 12:30:26;;;;;;;3.00;2.07;;;9.90;1.00;;;;;;4913800;28;20192;-79
2021/01/22 12:32:49;;;;;;;2.20;1.90;;;9.90;99.90;;;;;;4916145;28;20572;-77
2021/01/22 12:35:12;;;;;;;3.13;2.27;;;9.90;99.90;;;;;;4914971;28;20633;-79
2021/01/22 12:37:34;;;;;;;2.30;1.70;;;10.60;1.00;;;;;;4915432;28;20563;-78
2021/01/22 12:39:56;;;;;;;1.47;1.37;;;;;;;;;;4914115;28;20296;-77
2021/01/22 12:42:18;;;;;;;1.63;1.53;;;9.80;1.00;;;;;;4915883;28;20229;-75
2021/01/22 12:44:40;;;;;;;1.70;1.60;;;9.80;1.00;;;;;;4916675;28;20180;-76
2021/01/22 12:47:03;;;;;;;2.97;1.57;;;10.20;1.00;;;;;;4914551;28;20647;-77
2021/01/22 12:49:25;;;;;;;21.23;3.40;;;10.10;99.90;;;;;;4913149;28;20547;-77
2021/01/22 12:51:48;;;;;;;8.20;1.93;;;;;;;;;;4915303;28;20662;-76
2021/01/22 12:54:10;;;;;;;12.90;2.40;;;;;;;;;;4916084;28;20661;-76